createdAt,value
2023-03-29T00:00:40.365Z,987.35
2023-03-29T00:01:40.387Z,987.34
2023-03-29T00:02:40.418Z,987.34
2023-03-29T00:03:40.544Z,987.35
2023-03-29T00:04:40.336Z,987.37
2023-03-29T00:05:40.332Z,987.40
2023-03-29T00:06:40.291Z,987.42
2023-03-29T00:07:40.307Z,987.45
2023-03-29T00:08:40.292Z,987.48
2023-03-29T00:09:40.289Z,987.51
2023-03-29T00:10:40.256Z,987.50
2023-03-29T00:11:40.286Z,987.48
2023-03-29T00:12:40.230Z,987.47
2023-03-29T00:13:40.257Z,987.48
2023-03-29T00:14:40.211Z,987.50
2023-03-29T00:15:40.246Z,987.50
2023-03-29T00:16:40.225Z,987.50
2023-03-29T00:17:40.210Z,987.51
2023-03-29T00:18:40.164Z,987.52
2023-03-29T00:19:40.186Z,987.51
2023-03-29T00:20:40.154Z,987.53
2023-03-29T00:21:40.160Z,987.53
2023-03-29T00:22:40.127Z,987.56
2023-03-29T00:23:40.149Z,987.58
2023-03-29T00:24:40.107Z,987.57
2023-03-29T00:25:40.123Z,987.51
2023-03-29T00:26:40.081Z,987.44
2023-03-29T00:27:40.115Z,987.40
2023-03-29T00:28:40.059Z,987.41
2023-03-29T00:29:40.066Z,987.38
2023-03-29T00:30:40.045Z,987.38
2023-03-29T00:31:40.128Z,987.35
2023-03-29T00:32:40.062Z,987.30
2023-03-29T00:33:40.046Z,987.26
2023-03-29T00:34:39.994Z,987.22
2023-03-29T00:35:40.031Z,987.17
2023-03-29T00:36:39.976Z,987.13
2023-03-29T00:37:40.027Z,987.11
2023-03-29T00:38:39.963Z,987.08
2023-03-29T00:39:39.998Z,987.07
2023-03-29T00:40:39.961Z,987.05
2023-03-29T00:41:39.941Z,987.02
2023-03-29T00:42:39.923Z,986.98
2023-03-29T00:43:39.935Z,986.96
2023-03-29T00:44:39.914Z,986.96
2023-03-29T00:45:39.911Z,986.93
2023-03-29T00:46:39.955Z,986.90
2023-03-29T00:47:40.000Z,986.89
2023-03-29T00:48:39.856Z,986.89
2023-03-29T00:49:39.883Z,986.89
2023-03-29T00:50:39.847Z,986.89
2023-03-29T00:51:39.841Z,986.86
2023-03-29T00:52:39.818Z,986.82
2023-03-29T00:53:39.816Z,986.78
2023-03-29T00:54:39.792Z,986.77
2023-03-29T00:55:39.804Z,986.77
2023-03-29T00:56:40.157Z,986.79
2023-03-29T00:57:39.806Z,986.82
2023-03-29T00:58:39.745Z,986.82
2023-03-29T00:59:39.773Z,986.77
2023-03-29T01:00:39.729Z,986.74
2023-03-29T01:01:39.733Z,986.71
2023-03-29T01:02:40.003Z,986.70
2023-03-29T01:03:39.751Z,986.69
2023-03-29T01:04:39.692Z,986.66
2023-03-29T01:05:39.689Z,986.63
2023-03-29T01:06:39.762Z,986.60
2023-03-29T01:07:39.684Z,986.57
2023-03-29T01:08:39.670Z,986.53
2023-03-29T01:09:39.661Z,986.50
2023-03-29T01:10:39.630Z,986.49
2023-03-29T01:11:39.630Z,986.48
2023-03-29T01:12:39.598Z,986.49
2023-03-29T01:13:39.605Z,986.49
2023-03-29T01:14:39.585Z,986.47
2023-03-29T01:15:39.614Z,986.45
2023-03-29T01:16:39.595Z,986.43
2023-03-29T01:17:39.622Z,986.40
2023-03-29T01:18:39.535Z,986.37
2023-03-29T01:19:39.540Z,986.34
2023-03-29T01:20:39.523Z,986.32
2023-03-29T01:21:39.546Z,986.31
2023-03-29T01:22:39.496Z,986.29
2023-03-29T01:23:39.501Z,986.26
2023-03-29T01:24:39.479Z,986.24
2023-03-29T01:25:39.478Z,986.23
2023-03-29T01:26:39.456Z,986.21
2023-03-29T01:27:39.483Z,986.21
2023-03-29T01:28:39.446Z,986.20
2023-03-29T01:29:39.450Z,986.19
2023-03-29T01:30:39.406Z,986.18
2023-03-29T01:31:39.468Z,986.17
2023-03-29T01:32:39.453Z,986.17
2023-03-29T01:33:39.398Z,986.17
2023-03-29T01:34:39.385Z,986.17
2023-03-29T01:35:39.361Z,986.17
2023-03-29T01:36:39.362Z,986.16
2023-03-29T01:37:39.339Z,986.16
2023-03-29T01:38:39.357Z,986.14
2023-03-29T01:39:39.322Z,986.15
2023-03-29T01:40:39.320Z,986.12
2023-03-29T01:41:39.410Z,986.09
2023-03-29T01:42:39.312Z,986.06
2023-03-29T01:43:39.277Z,986.06
2023-03-29T01:44:39.282Z,986.06
2023-03-29T01:45:39.327Z,986.06
2023-03-29T01:46:39.461Z,986.05
2023-03-29T01:47:39.304Z,986.03
2023-03-29T01:48:39.236Z,986.02
2023-03-29T01:49:39.221Z,986.00
2023-03-29T01:50:39.224Z,986.00
2023-03-29T01:51:39.198Z,986.00
2023-03-29T01:52:39.191Z,986.00
2023-03-29T01:53:39.162Z,986.00
2023-03-29T01:54:39.167Z,985.99
2023-03-29T01:55:39.152Z,985.99
2023-03-29T01:56:39.231Z,985.99
2023-03-29T01:57:39.131Z,986.00
2023-03-29T01:58:39.148Z,985.98
2023-03-29T01:59:39.102Z,985.96
2023-03-29T02:00:39.105Z,985.95
2023-03-29T02:01:39.146Z,985.93
2023-03-29T02:02:39.227Z,985.93
2023-03-29T02:03:39.097Z,985.94
2023-03-29T02:04:39.066Z,985.95
2023-03-29T02:05:39.134Z,985.95
2023-03-29T02:06:39.041Z,985.94
2023-03-29T02:07:39.028Z,985.92
2023-03-29T02:08:39.043Z,985.88
2023-03-29T02:09:39.002Z,985.86
2023-03-29T02:10:39.028Z,985.86
2023-03-29T02:11:38.980Z,985.83
2023-03-29T02:12:38.983Z,985.81
2023-03-29T02:13:38.973Z,985.81
2023-03-29T02:14:38.962Z,985.82
2023-03-29T02:15:38.971Z,985.82
2023-03-29T02:16:38.953Z,985.81
2023-03-29T02:17:39.001Z,985.80
2023-03-29T02:18:38.912Z,985.81
2023-03-29T02:19:38.902Z,985.81
2023-03-29T02:20:39.139Z,985.82
2023-03-29T02:21:38.865Z,985.83
2023-03-29T02:22:38.902Z,985.84
2023-03-29T02:23:38.860Z,985.84
2023-03-29T02:24:38.849Z,985.83
2023-03-29T02:25:38.840Z,985.82
2023-03-29T02:26:38.829Z,985.81
2023-03-29T02:27:38.827Z,985.80
2023-03-29T02:28:38.810Z,985.79
2023-03-29T02:29:38.785Z,985.78
2023-03-29T02:30:38.807Z,985.77
2023-03-29T02:31:38.863Z,985.77
2023-03-29T02:32:38.802Z,985.76
2023-03-29T02:33:38.750Z,985.76
2023-03-29T02:34:38.746Z,985.76
2023-03-29T02:35:38.769Z,985.77
2023-03-29T02:36:38.758Z,985.78
2023-03-29T02:37:38.697Z,985.77
2023-03-29T02:38:38.725Z,985.77
2023-03-29T02:39:38.677Z,985.76
2023-03-29T02:40:38.682Z,985.75
2023-03-29T02:41:38.650Z,985.75
2023-03-29T02:42:38.686Z,985.74
2023-03-29T02:43:38.634Z,985.72
2023-03-29T02:44:38.655Z,985.70
2023-03-29T02:45:38.613Z,985.69
2023-03-29T02:46:38.663Z,985.70
2023-03-29T02:47:38.630Z,985.71
2023-03-29T02:48:38.615Z,985.73
2023-03-29T02:49:38.605Z,985.72
2023-03-29T02:50:38.615Z,985.69
2023-03-29T02:51:38.565Z,985.66
2023-03-29T02:52:38.584Z,985.63
2023-03-29T02:53:38.532Z,985.61
2023-03-29T02:54:38.551Z,985.59
2023-03-29T02:55:38.520Z,985.56
2023-03-29T02:56:38.568Z,985.54
2023-03-29T02:57:38.486Z,985.54
2023-03-29T02:58:38.492Z,985.52
2023-03-29T02:59:38.469Z,985.50
2023-03-29T03:00:38.495Z,985.47
2023-03-29T03:01:38.465Z,985.47
2023-03-29T03:02:38.539Z,985.50
2023-03-29T03:03:38.471Z,985.50
2023-03-29T03:04:38.467Z,985.46
2023-03-29T03:05:38.414Z,985.44
2023-03-29T03:06:38.423Z,985.47
2023-03-29T03:07:38.382Z,985.47
2023-03-29T03:08:38.390Z,985.45
2023-03-29T03:09:38.364Z,985.46
2023-03-29T03:10:38.388Z,985.48
2023-03-29T03:11:38.343Z,985.48
2023-03-29T03:12:38.364Z,985.47
2023-03-29T03:13:38.324Z,985.44
2023-03-29T03:14:38.327Z,985.43
2023-03-29T03:15:38.304Z,985.43
2023-03-29T03:16:38.350Z,985.43
2023-03-29T03:17:38.327Z,985.40
2023-03-29T03:18:38.284Z,985.38
2023-03-29T03:19:38.253Z,985.36
2023-03-29T03:20:38.279Z,985.36
2023-03-29T03:21:38.245Z,985.36
2023-03-29T03:22:38.243Z,985.35
2023-03-29T03:23:38.209Z,985.33
2023-03-29T03:24:38.228Z,985.33
2023-03-29T03:25:38.207Z,985.34
2023-03-29T03:26:38.260Z,985.35
2023-03-29T03:27:38.180Z,985.34
2023-03-29T03:28:38.172Z,985.33
2023-03-29T03:29:38.156Z,985.32
2023-03-29T03:30:38.147Z,985.34
2023-03-29T03:31:38.162Z,985.36
2023-03-29T03:32:38.139Z,985.36
2023-03-29T03:33:38.115Z,985.36
2023-03-29T03:34:38.110Z,985.36
2023-03-29T03:35:38.100Z,985.33
2023-03-29T03:36:38.101Z,985.29
2023-03-29T03:37:38.067Z,985.26
2023-03-29T03:38:38.087Z,985.24
2023-03-29T03:39:38.035Z,985.24
2023-03-29T03:40:38.115Z,985.25
2023-03-29T03:41:38.017Z,985.29
2023-03-29T03:42:38.066Z,985.31
2023-03-29T03:43:38.004Z,985.29
2023-03-29T03:44:38.011Z,985.25
2023-03-29T03:45:37.978Z,985.21
2023-03-29T03:46:38.004Z,985.20
2023-03-29T03:47:38.187Z,985.18
2023-03-29T03:48:37.980Z,985.18
2023-03-29T03:49:37.930Z,985.18
2023-03-29T03:50:37.934Z,985.15
2023-03-29T03:51:37.915Z,985.11
2023-03-29T03:52:37.932Z,985.09
2023-03-29T03:53:37.903Z,985.07
2023-03-29T03:54:37.905Z,985.04
2023-03-29T03:55:36.866Z,985.04
2023-03-29T03:56:37.957Z,985.06
2023-03-29T03:57:37.843Z,985.06
2023-03-29T03:58:37.876Z,985.03
2023-03-29T03:59:37.821Z,984.99
2023-03-29T04:00:37.870Z,984.95
2023-03-29T04:01:37.806Z,984.97
2023-03-29T04:02:37.849Z,984.98
2023-03-29T04:03:37.901Z,984.97
2023-03-29T04:04:37.806Z,984.94
2023-03-29T04:05:44.289Z,984.92
2023-03-29T04:06:37.764Z,984.89
2023-03-29T04:07:37.740Z,984.87
2023-03-29T04:08:37.772Z,984.85
2023-03-29T04:09:37.732Z,984.85
2023-03-29T04:10:37.738Z,984.86
2023-03-29T04:11:37.698Z,984.86
2023-03-29T04:12:37.716Z,984.89
2023-03-29T04:13:37.689Z,984.90
2023-03-29T04:14:37.700Z,984.90
2023-03-29T04:15:37.710Z,984.89
2023-03-29T04:16:37.665Z,984.89
2023-03-29T04:17:37.740Z,984.88
2023-03-29T04:18:37.805Z,984.87
2023-03-29T04:19:37.610Z,984.87
2023-03-29T04:20:37.643Z,984.86
2023-03-29T04:21:37.604Z,984.86
2023-03-29T04:22:37.612Z,984.85
2023-03-29T04:23:37.569Z,984.84
2023-03-29T04:24:37.585Z,984.84
2023-03-29T04:25:37.564Z,984.82
2023-03-29T04:26:37.554Z,984.80
2023-03-29T04:27:37.547Z,984.78
2023-03-29T04:28:37.534Z,984.79
2023-03-29T04:29:37.518Z,984.81
2023-03-29T04:30:37.530Z,984.82
2023-03-29T04:31:37.603Z,984.84
2023-03-29T04:32:37.551Z,984.86
2023-03-29T04:33:37.474Z,984.85
2023-03-29T04:34:37.490Z,984.82
2023-03-29T04:35:37.510Z,984.81
2023-03-29T04:36:37.421Z,984.80
2023-03-29T04:37:37.427Z,984.78
2023-03-29T04:38:37.408Z,984.75
2023-03-29T04:39:37.358Z,984.71
2023-03-29T04:40:37.374Z,984.68
2023-03-29T04:41:37.395Z,984.66
2023-03-29T04:42:37.540Z,984.62
2023-03-29T04:43:39.668Z,984.60
2023-03-29T04:44:37.404Z,984.61
2023-03-29T04:45:37.344Z,984.62
2023-03-29T04:46:37.382Z,984.62
2023-03-29T04:47:37.398Z,984.60
2023-03-29T04:48:37.340Z,984.59
2023-03-29T04:49:37.269Z,984.57
2023-03-29T04:50:37.270Z,984.56
2023-03-29T04:51:37.238Z,984.56
2023-03-29T04:52:37.251Z,984.57
2023-03-29T04:53:37.216Z,984.57
2023-03-29T04:54:37.231Z,984.59
2023-03-29T04:55:37.187Z,984.60
2023-03-29T04:56:37.214Z,984.62
2023-03-29T04:57:37.174Z,984.61
2023-03-29T04:58:37.189Z,984.60
2023-03-29T04:59:37.287Z,984.60
2023-03-29T05:00:36.157Z,984.60
2023-03-29T05:01:37.160Z,984.61
2023-03-29T05:02:37.141Z,984.61
2023-03-29T05:03:37.105Z,984.59
2023-03-29T05:04:37.160Z,984.57
2023-03-29T05:05:37.087Z,984.55
2023-03-29T05:06:37.084Z,984.56
2023-03-29T05:07:37.078Z,984.57
2023-03-29T05:08:37.063Z,984.58
2023-03-29T05:09:37.038Z,984.58
2023-03-29T05:10:37.052Z,984.60
2023-03-29T05:11:37.017Z,984.59
2023-03-29T05:12:37.037Z,984.58
2023-03-29T05:13:36.994Z,984.61
2023-03-29T05:14:37.010Z,984.61
2023-03-29T05:15:37.408Z,984.58
2023-03-29T05:16:37.010Z,984.58
2023-03-29T05:17:37.011Z,984.55
2023-03-29T05:18:36.976Z,984.53
2023-03-29T05:19:36.945Z,984.51
2023-03-29T05:20:36.948Z,984.52
2023-03-29T05:21:36.925Z,984.52
2023-03-29T05:22:36.913Z,984.52
2023-03-29T05:23:36.889Z,984.56
2023-03-29T05:24:36.912Z,984.57
2023-03-29T05:25:36.866Z,984.58
2023-03-29T05:26:36.890Z,984.56
2023-03-29T05:27:36.841Z,984.53
2023-03-29T05:28:36.858Z,984.49
2023-03-29T05:29:36.840Z,984.46
2023-03-29T05:30:36.830Z,984.44
2023-03-29T05:31:36.857Z,984.43
2023-03-29T05:32:36.963Z,984.41
2023-03-29T05:33:36.817Z,984.42
2023-03-29T05:34:36.788Z,984.41
2023-03-29T05:35:36.794Z,984.42
2023-03-29T05:36:36.771Z,984.41
2023-03-29T05:37:36.746Z,984.41
2023-03-29T05:38:36.781Z,984.40
2023-03-29T05:39:37.711Z,984.38
2023-03-29T05:40:36.740Z,984.39
2023-03-29T05:41:36.707Z,984.39
2023-03-29T05:42:36.708Z,984.38
2023-03-29T05:43:36.711Z,984.38
2023-03-29T05:44:36.660Z,984.40
2023-03-29T05:45:36.687Z,984.39
2023-03-29T05:46:36.641Z,984.37
2023-03-29T05:47:36.661Z,984.38
2023-03-29T05:48:36.637Z,984.37
2023-03-29T05:49:36.640Z,984.37
2023-03-29T05:50:36.602Z,984.36
2023-03-29T05:51:36.604Z,984.35
2023-03-29T05:52:36.576Z,984.34
2023-03-29T05:53:36.607Z,984.32
2023-03-29T05:54:36.557Z,984.34
2023-03-29T05:55:36.579Z,984.34
2023-03-29T05:56:36.546Z,984.34
2023-03-29T05:57:36.558Z,984.35
2023-03-29T05:58:36.513Z,984.35
2023-03-29T05:59:36.531Z,984.35
2023-03-29T06:00:36.496Z,984.37
2023-03-29T06:01:36.626Z,984.38
2023-03-29T06:02:36.558Z,984.37
2023-03-29T06:03:36.595Z,984.38
2023-03-29T06:04:36.672Z,984.41
2023-03-29T06:05:36.459Z,984.41
2023-03-29T06:06:36.432Z,984.39
2023-03-29T06:07:36.442Z,984.37
2023-03-29T06:08:36.413Z,984.36
2023-03-29T06:09:36.446Z,984.35
2023-03-29T06:10:36.387Z,984.36
2023-03-29T06:11:36.398Z,984.35
2023-03-29T06:12:36.369Z,984.35
2023-03-29T06:13:36.387Z,984.36
2023-03-29T06:14:36.351Z,984.37
2023-03-29T06:15:36.378Z,984.36
2023-03-29T06:16:36.396Z,984.37
2023-03-29T06:17:36.401Z,984.36
2023-03-29T06:18:36.311Z,984.38
2023-03-29T06:19:36.312Z,984.41
2023-03-29T06:20:36.298Z,984.44
2023-03-29T06:21:36.305Z,984.45
2023-03-29T06:22:36.263Z,984.46
2023-03-29T06:23:36.286Z,984.44
2023-03-29T06:24:36.240Z,984.42
2023-03-29T06:25:36.269Z,984.40
2023-03-29T06:26:36.229Z,984.38
2023-03-29T06:27:36.224Z,984.39
2023-03-29T06:28:36.200Z,984.41
2023-03-29T06:29:36.234Z,984.41
2023-03-29T06:30:36.176Z,984.39
2023-03-29T06:31:36.426Z,984.40
2023-03-29T06:32:36.225Z,984.41
2023-03-29T06:33:36.172Z,984.40
2023-03-29T06:34:38.480Z,984.42
2023-03-29T06:35:36.194Z,984.41
2023-03-29T06:36:36.119Z,984.43
2023-03-29T06:37:36.117Z,984.44
2023-03-29T06:38:36.099Z,984.41
2023-03-29T06:39:36.097Z,984.43
2023-03-29T06:40:36.074Z,984.41
2023-03-29T06:41:36.093Z,984.42
2023-03-29T06:42:36.067Z,984.43
2023-03-29T06:43:36.067Z,984.44
2023-03-29T06:44:36.030Z,984.44
2023-03-29T06:45:36.054Z,984.42
2023-03-29T06:46:36.084Z,984.42
2023-03-29T06:47:36.076Z,984.43
2023-03-29T06:48:35.993Z,984.43
2023-03-29T06:49:36.007Z,984.45
2023-03-29T06:50:35.985Z,984.48
2023-03-29T06:51:36.006Z,984.51
2023-03-29T06:52:35.956Z,984.50
2023-03-29T06:53:35.950Z,984.52
2023-03-29T06:54:35.923Z,984.53
2023-03-29T06:55:35.940Z,984.55
2023-03-29T06:56:35.903Z,984.56
2023-03-29T06:57:35.936Z,984.56
2023-03-29T06:58:35.887Z,984.54
2023-03-29T06:59:35.884Z,984.52
2023-03-29T07:00:35.913Z,984.51
2023-03-29T07:01:35.900Z,984.50
2023-03-29T07:02:35.884Z,984.50
2023-03-29T07:03:35.875Z,984.50
2023-03-29T07:04:35.876Z,984.51
2023-03-29T07:05:35.818Z,984.50
2023-03-29T07:06:35.790Z,984.53
2023-03-29T07:07:35.796Z,984.53
2023-03-29T07:08:35.769Z,984.54
2023-03-29T07:09:35.802Z,984.56
2023-03-29T07:10:35.748Z,984.57
2023-03-29T07:11:35.784Z,984.57
2023-03-29T07:12:35.726Z,984.55
2023-03-29T07:13:35.757Z,984.59
2023-03-29T07:14:35.706Z,984.57
2023-03-29T07:15:35.740Z,984.57
2023-03-29T07:16:35.753Z,984.57
2023-03-29T07:17:35.703Z,984.57
2023-03-29T07:18:35.662Z,984.59
2023-03-29T07:19:35.667Z,984.62
2023-03-29T07:20:35.645Z,984.64
2023-03-29T07:21:37.885Z,984.63
2023-03-29T07:22:35.625Z,984.59
2023-03-29T07:23:35.625Z,984.59
2023-03-29T07:24:35.596Z,984.66
2023-03-29T07:25:35.609Z,984.63
2023-03-29T07:26:35.593Z,984.62
2023-03-29T07:27:35.586Z,984.63
2023-03-29T07:28:35.556Z,984.63
2023-03-29T07:29:35.572Z,984.63
2023-03-29T07:30:35.540Z,984.65
2023-03-29T07:31:35.540Z,984.67
2023-03-29T07:32:35.577Z,984.65
2023-03-29T07:33:35.635Z,984.63
2023-03-29T07:34:35.487Z,984.63
2023-03-29T07:35:35.536Z,984.62
2023-03-29T07:36:35.481Z,984.62
2023-03-29T07:37:35.473Z,984.60
2023-03-29T07:38:35.446Z,984.59
2023-03-29T07:39:35.467Z,984.60
2023-03-29T07:40:35.424Z,984.58
2023-03-29T07:41:35.434Z,984.57
2023-03-29T07:42:35.415Z,984.58
2023-03-29T07:43:35.409Z,984.59
2023-03-29T07:44:35.380Z,984.59
2023-03-29T07:45:35.479Z,984.56
2023-03-29T07:46:35.357Z,984.56
2023-03-29T07:47:35.436Z,984.56
2023-03-29T07:48:35.347Z,984.56
2023-03-29T07:49:35.362Z,984.56
2023-03-29T07:50:35.316Z,984.57
2023-03-29T07:51:35.341Z,984.56
2023-03-29T07:52:35.307Z,984.56
2023-03-29T07:53:35.328Z,984.58
2023-03-29T07:54:35.273Z,984.58
2023-03-29T07:55:35.289Z,984.56
2023-03-29T07:56:35.251Z,984.54
2023-03-29T07:57:35.270Z,984.52
2023-03-29T07:58:35.228Z,984.54
2023-03-29T07:59:35.255Z,984.58
2023-03-29T08:00:35.232Z,984.51
2023-03-29T08:01:35.213Z,984.53
2023-03-29T08:02:35.197Z,984.52
2023-03-29T08:03:35.248Z,984.53
2023-03-29T08:04:35.265Z,984.53
2023-03-29T08:05:41.527Z,984.57
2023-03-29T08:06:35.141Z,984.58
2023-03-29T08:07:35.147Z,984.59
2023-03-29T08:08:35.124Z,984.58
2023-03-29T08:09:35.131Z,984.56
2023-03-29T08:10:35.111Z,984.57
2023-03-29T08:11:35.114Z,984.61
2023-03-29T08:12:35.084Z,984.59
2023-03-29T08:13:35.080Z,984.58
2023-03-29T08:14:35.053Z,984.56
2023-03-29T08:15:35.084Z,984.53
2023-03-29T08:16:35.055Z,984.50
2023-03-29T08:17:35.116Z,984.46
2023-03-29T08:18:35.112Z,984.51
2023-03-29T08:19:35.016Z,984.50
2023-03-29T08:20:34.992Z,984.50
2023-03-29T08:21:35.011Z,984.47
2023-03-29T08:22:34.970Z,984.47
2023-03-29T08:23:34.991Z,984.58
2023-03-29T08:24:34.946Z,984.53
2023-03-29T08:25:34.959Z,984.52
2023-03-29T08:26:34.941Z,984.52
2023-03-29T08:27:34.955Z,984.51
2023-03-29T08:28:34.902Z,984.51
2023-03-29T08:29:34.913Z,984.50
2023-03-29T08:30:34.890Z,984.50
2023-03-29T08:31:34.956Z,984.48
2023-03-29T08:32:34.873Z,984.49
2023-03-29T08:33:34.959Z,984.52
2023-03-29T08:34:34.860Z,984.52
2023-03-29T08:35:34.920Z,984.51
2023-03-29T08:36:34.839Z,984.49
2023-03-29T08:37:34.821Z,984.47
2023-03-29T08:38:34.797Z,984.49
2023-03-29T08:39:34.859Z,984.47
2023-03-29T08:40:34.800Z,984.44
2023-03-29T08:41:34.807Z,984.42
2023-03-29T08:42:34.807Z,984.41
2023-03-29T08:43:34.848Z,984.43
2023-03-29T08:44:34.729Z,984.47
2023-03-29T08:45:34.745Z,984.47
2023-03-29T08:46:35.432Z,984.49
2023-03-29T08:47:34.755Z,984.49
2023-03-29T08:48:34.688Z,984.48
2023-03-29T08:49:34.695Z,984.49
2023-03-29T08:50:34.661Z,984.48
2023-03-29T08:51:34.681Z,984.47
2023-03-29T08:52:34.644Z,984.45
2023-03-29T08:53:34.661Z,984.47
2023-03-29T08:54:34.612Z,984.49
2023-03-29T08:55:34.638Z,984.48
2023-03-29T08:56:34.593Z,984.47
2023-03-29T08:57:34.595Z,984.46
2023-03-29T08:58:34.595Z,984.46
2023-03-29T08:59:34.579Z,984.44
2023-03-29T09:00:34.548Z,984.44
2023-03-29T09:01:34.591Z,984.42
2023-03-29T09:02:34.631Z,984.41
2023-03-29T09:03:34.592Z,984.40
2023-03-29T09:04:34.517Z,984.37
2023-03-29T09:05:34.537Z,984.36
2023-03-29T09:06:34.480Z,984.31
2023-03-29T09:07:34.487Z,984.30
2023-03-29T09:08:34.460Z,984.30
2023-03-29T09:09:34.477Z,984.31
2023-03-29T09:10:34.435Z,984.33
2023-03-29T09:11:34.459Z,984.33
2023-03-29T09:12:36.485Z,984.33
2023-03-29T09:13:34.471Z,984.38
2023-03-29T09:14:34.408Z,984.33
2023-03-29T09:15:34.406Z,984.33
2023-03-29T09:16:34.451Z,984.33
2023-03-29T09:17:34.411Z,984.29
2023-03-29T09:18:34.352Z,984.28
2023-03-29T09:19:34.369Z,984.29
2023-03-29T09:20:34.337Z,984.25
2023-03-29T09:21:34.345Z,984.23
2023-03-29T09:22:34.303Z,984.24
2023-03-29T09:23:34.307Z,984.28
2023-03-29T09:24:34.287Z,984.29
2023-03-29T09:25:40.996Z,984.27
2023-03-29T09:26:34.285Z,984.28
2023-03-29T09:27:34.275Z,984.25
2023-03-29T09:28:34.237Z,984.24
2023-03-29T09:29:34.264Z,984.21
2023-03-29T09:30:34.223Z,984.22
2023-03-29T09:31:34.248Z,984.20
2023-03-29T09:32:34.203Z,984.21
2023-03-29T09:33:34.212Z,984.21
2023-03-29T09:34:34.189Z,984.22
2023-03-29T09:35:34.212Z,984.24
2023-03-29T09:36:34.164Z,984.23
2023-03-29T09:37:34.163Z,984.23
2023-03-29T09:38:34.156Z,984.24
2023-03-29T09:39:34.122Z,984.24
2023-03-29T09:40:34.145Z,984.24
2023-03-29T09:41:34.106Z,984.24
2023-03-29T09:42:34.111Z,984.27
2023-03-29T09:43:34.079Z,984.23
2023-03-29T09:44:34.092Z,984.25
2023-03-29T09:45:34.102Z,984.26
2023-03-29T09:46:34.054Z,984.28
2023-03-29T09:47:34.054Z,984.27
2023-03-29T09:48:34.035Z,984.25
2023-03-29T09:49:34.003Z,984.24
2023-03-29T09:50:34.100Z,984.28
2023-03-29T09:51:33.978Z,984.28
2023-03-29T09:52:34.008Z,984.26
2023-03-29T09:53:33.961Z,984.23
2023-03-29T09:54:33.966Z,984.22
2023-03-29T09:55:33.992Z,984.22
2023-03-29T09:56:33.958Z,984.23
2023-03-29T09:57:33.946Z,984.20
2023-03-29T09:58:33.940Z,984.20
2023-03-29T09:59:33.906Z,984.20
2023-03-29T10:00:33.917Z,984.19
2023-03-29T10:01:33.905Z,984.20
2023-03-29T10:02:33.909Z,984.17
2023-03-29T10:03:33.859Z,984.15
2023-03-29T10:04:33.900Z,984.17
2023-03-29T10:05:33.835Z,984.12
2023-03-29T10:06:33.836Z,984.14
2023-03-29T10:07:33.810Z,984.16
2023-03-29T10:08:33.824Z,984.16
2023-03-29T10:09:33.787Z,984.21
2023-03-29T10:10:33.793Z,984.12
2023-03-29T10:11:33.764Z,984.18
2023-03-29T10:12:33.770Z,984.18
2023-03-29T10:13:33.772Z,984.21
2023-03-29T10:14:33.770Z,984.19
2023-03-29T10:15:33.739Z,984.18
2023-03-29T10:16:33.765Z,984.21
2023-03-29T10:17:33.707Z,984.18
2023-03-29T10:18:33.707Z,984.19
2023-03-29T10:19:33.688Z,984.22
2023-03-29T10:20:33.699Z,984.24
2023-03-29T10:21:33.662Z,984.25
2023-03-29T10:22:33.678Z,984.23
2023-03-29T10:23:33.640Z,984.21
2023-03-29T10:24:33.651Z,984.20
2023-03-29T10:25:33.625Z,984.22
2023-03-29T10:26:33.645Z,984.20
2023-03-29T10:27:33.594Z,984.20
2023-03-29T10:28:33.593Z,984.18
2023-03-29T10:29:33.593Z,984.20
2023-03-29T10:30:33.585Z,984.17
2023-03-29T10:31:33.732Z,984.17
2023-03-29T10:32:33.698Z,984.16
2023-03-29T10:33:33.530Z,984.16
2023-03-29T10:34:33.534Z,984.12
2023-03-29T10:35:33.551Z,984.15
2023-03-29T10:36:33.508Z,984.14
2023-03-29T10:37:33.480Z,984.13
2023-03-29T10:38:33.495Z,984.10
2023-03-29T10:39:33.457Z,984.11
2023-03-29T10:40:33.505Z,984.11
2023-03-29T10:41:33.433Z,984.12
2023-03-29T10:42:33.454Z,984.09
2023-03-29T10:43:33.442Z,984.11
2023-03-29T10:44:33.494Z,984.11
2023-03-29T10:45:33.400Z,984.12
2023-03-29T10:46:33.422Z,984.12
2023-03-29T10:47:33.401Z,984.12
2023-03-29T10:48:33.386Z,984.11
2023-03-29T10:49:33.387Z,984.10
2023-03-29T10:50:33.363Z,984.09
2023-03-29T10:51:33.333Z,984.10
2023-03-29T10:52:33.344Z,984.10
2023-03-29T10:53:33.298Z,984.09
2023-03-29T10:54:33.307Z,984.03
2023-03-29T10:55:33.363Z,983.98
2023-03-29T10:56:33.313Z,983.98
2023-03-29T10:57:33.311Z,983.99
2023-03-29T10:58:33.258Z,984.01
2023-03-29T10:59:33.241Z,984.03
2023-03-29T11:00:33.254Z,984.03
2023-03-29T11:01:33.259Z,984.01
2023-03-29T11:02:33.331Z,983.99
2023-03-29T11:03:33.230Z,983.99
2023-03-29T11:04:33.207Z,984.01
2023-03-29T11:05:33.171Z,984.04
2023-03-29T11:06:33.169Z,984.04
2023-03-29T11:07:33.160Z,984.01
2023-03-29T11:08:33.170Z,983.99
2023-03-29T11:09:33.124Z,983.96
2023-03-29T11:10:33.127Z,983.97
2023-03-29T11:11:33.114Z,983.95
2023-03-29T11:12:33.142Z,983.94
2023-03-29T11:13:33.090Z,983.94
2023-03-29T11:14:33.092Z,983.96
2023-03-29T11:15:33.051Z,984.00
2023-03-29T11:16:33.084Z,983.96
2023-03-29T11:17:33.080Z,983.99
2023-03-29T11:18:33.043Z,983.95
2023-03-29T11:19:33.015Z,983.93
2023-03-29T11:20:33.031Z,983.93
2023-03-29T11:21:32.981Z,983.94
2023-03-29T11:22:32.988Z,983.97
2023-03-29T11:23:32.978Z,983.98
2023-03-29T11:24:32.972Z,984.00
2023-03-29T11:25:32.940Z,984.03
2023-03-29T11:26:32.947Z,984.03
2023-03-29T11:27:32.916Z,983.98
2023-03-29T11:28:32.936Z,983.98
2023-03-29T11:29:32.908Z,983.99
2023-03-29T11:30:32.915Z,984.04
2023-03-29T11:31:32.944Z,984.02
2023-03-29T11:32:32.902Z,984.05
2023-03-29T11:33:32.860Z,984.02
2023-03-29T11:34:32.893Z,984.02
2023-03-29T11:35:32.869Z,984.03
2023-03-29T11:36:32.855Z,984.01
2023-03-29T11:37:32.814Z,983.98
2023-03-29T11:38:32.827Z,983.97
2023-03-29T11:39:32.804Z,983.96
2023-03-29T11:40:32.824Z,983.92
2023-03-29T11:41:32.774Z,983.89
2023-03-29T11:42:32.770Z,983.89
2023-03-29T11:43:32.746Z,983.91
2023-03-29T11:44:32.753Z,983.91
2023-03-29T11:45:32.738Z,983.90
2023-03-29T11:46:32.811Z,983.90
2023-03-29T11:47:32.805Z,983.90
2023-03-29T11:48:32.703Z,983.90
2023-03-29T11:49:32.682Z,983.89
2023-03-29T11:50:35.332Z,983.88
2023-03-29T11:51:32.676Z,983.86
2023-03-29T11:52:32.724Z,983.84
2023-03-29T11:53:32.633Z,983.84
2023-03-29T11:54:32.656Z,983.85
2023-03-29T11:55:32.626Z,983.80
2023-03-29T11:56:32.623Z,983.84
2023-03-29T11:57:32.588Z,983.84
2023-03-29T11:58:33.192Z,983.80
2023-03-29T11:59:32.573Z,983.84
2023-03-29T12:00:32.600Z,983.78
2023-03-29T12:01:32.558Z,983.76
2023-03-29T12:02:32.632Z,983.74
2023-03-29T12:03:32.597Z,983.70
2023-03-29T12:04:32.625Z,983.66
2023-03-29T12:05:32.500Z,983.66
2023-03-29T12:06:32.530Z,983.66
2023-03-29T12:07:32.491Z,983.66
2023-03-29T12:08:32.490Z,983.66
2023-03-29T12:09:32.507Z,983.64
2023-03-29T12:10:33.692Z,983.60
2023-03-29T12:11:32.447Z,983.63
2023-03-29T12:12:32.457Z,983.66
2023-03-29T12:13:32.427Z,983.70
2023-03-29T12:14:32.424Z,983.69
2023-03-29T12:15:32.395Z,983.69
2023-03-29T12:16:32.502Z,983.67
2023-03-29T12:17:32.396Z,983.67
2023-03-29T12:18:32.418Z,983.66
2023-03-29T12:19:32.354Z,983.66
2023-03-29T12:20:32.369Z,983.66
2023-03-29T12:21:32.341Z,983.66
2023-03-29T12:22:32.367Z,983.70
2023-03-29T12:23:32.343Z,983.71
2023-03-29T12:24:32.334Z,983.71
2023-03-29T12:25:32.284Z,983.71
2023-03-29T12:26:32.290Z,983.69
2023-03-29T12:27:32.264Z,983.67
2023-03-29T12:28:32.264Z,983.67